Time;durP1;ratioP1;P1;durP2;ratioP2;P2;SDS_P1;SDS_P2;PMS_P1;PMS_P2;Temp;Humidity;BMP_temperature;BMP_pressure;BME280_temperature;BME280_humidity;BME280_pressure;Samples;Min_cycle;Max_cycle;Signal;HPM_P1;HPM_P2
2021/10/31 00:02:18;;;;;;;6.55;1.30;;;13.20;78.10;;;;;;4995464;28;20030;-68
2021/10/31 00:04:44;;;;;;;6.47;1.13;;;13.20;78.10;;;;;;5008965;28;20532;-68
2021/10/31 00:07:10;;;;;;;7.72;1.50;;;13.10;78.30;;;;;;4999358;28;20116;-68
2021/10/31 00:09:36;;;;;;;6.35;1.30;;;13.10;78.50;;;;;;5001543;28;20512;-68
2021/10/31 00:12:02;;;;;;;7.35;1.60;;;13.10;78.70;;;;;;5009256;28;20489;-68
2021/10/31 00:14:28;;;;;;;6.53;1.15;;;13.00;78.70;;;;;;4996199;28;20493;-68
2021/10/31 00:16:58;;;;;;;3.58;0.93;;;13.00;78.80;;;;;;5010377;28;20034;-69
2021/10/31 00:19:28;;;;;;;10.32;1.40;;;13.00;79.00;;;;;;5008942;28;20029;-68
2021/10/31 00:21:54;;;;;;;9.07;1.05;;;13.00;79.20;;;;;;5001407;28;20042;-68
2021/10/31 00:24:20;;;;;;;5.05;1.00;;;13.00;79.50;;;;;;5000349;28;20026;-68
2021/10/31 00:26:46;;;;;;;9.93;1.55;;;13.00;79.60;;;;;;5009074;28;20028;-68
2021/10/31 00:29:11;;;;;;;5.40;1.10;;;13.00;79.80;;;;;;4994328;28;20410;-68
2021/10/31 00:31:37;;;;;;;6.50;1.27;;;13.00;80.00;;;;;;4998411;28;20034;-68
2021/10/31 00:34:03;;;;;;;5.35;1.30;;;12.90;80.00;;;;;;4998646;28;20034;-68
2021/10/31 00:36:29;;;;;;;6.15;0.98;;;12.90;80.20;;;;;;4998827;28;20062;-68
2021/10/31 00:38:55;;;;;;;7.22;1.80;;;12.90;80.30;;;;;;4997745;28;20057;-68
2021/10/31 00:41:21;;;;;;;8.90;1.90;;;12.90;80.40;;;;;;4995044;28;20037;-68
2021/10/31 00:43:47;;;;;;;4.15;1.15;;;12.90;80.60;;;;;;4997240;28;20034;-68
2021/10/31 00:46:12;;;;;;;7.00;1.15;;;12.90;80.70;;;;;;4998385;28;20038;-68
2021/10/31 00:48:39;;;;;;;7.07;1.45;;;12.90;80.60;;;;;;4998695;28;20496;-68
2021/10/31 00:51:05;;;;;;;7.25;1.15;;;12.90;80.80;;;;;;4997916;28;20036;-68
2021/10/31 00:53:32;;;;;;;3.45;0.90;;;12.90;81.00;;;;;;5009285;28;20025;-68
2021/10/31 00:55:59;;;;;;;7.35;1.30;;;12.90;81.00;;;;;;5008246;28;20034;-68
2021/10/31 00:58:25;;;;;;;5.28;1.02;;;12.90;81.20;;;;;;5007626;28;20026;-68
2021/10/31 01:00:52;;;;;;;7.68;1.58;;;12.90;81.30;;;;;;5006629;28;20037;-68
2021/10/31 01:03:18;;;;;;;9.90;1.10;;;12.90;81.30;;;;;;5006373;28;20022;-68
2021/10/31 01:05:53;;;;;;;7.85;1.35;;;13.00;81.50;;;;;;5008684;28;20032;-68
2021/10/31 01:08:42;;;;;;;4.95;1.10;;;12.90;81.40;;;;;;4993697;28;20029;-68
2021/10/31 01:11:36;;;;;;;8.23;1.20;;;13.00;81.50;;;;;;4997428;28;20045;-68
2021/10/31 01:14:07;;;;;;;7.40;1.15;;;13.00;81.40;;;;;;5006743;28;20041;-68
2021/10/31 01:16:41;;;;;;;6.68;1.20;;;13.00;81.40;;;;;;4997560;28;20035;-68
2021/10/31 01:19:29;;;;;;;5.70;1.00;;;13.10;81.30;;;;;;4997299;28;20405;-68
2021/10/31 01:22:30;;;;;;;7.50;1.05;;;13.10;81.30;;;;;;4997462;28;20026;-68
2021/10/31 01:25:15;;;;;;;;;;;13.10;81.20;;;;;;4998997;28;20113;-68
2021/10/31 01:28:19;;;;;;;4.57;0.77;;;13.10;81.10;;;;;;4997606;28;19933;-68
2021/10/31 01:30:59;;;;;;;5.00;0.80;;;13.10;81.20;;;;;;4918233;29;20040;-68
2021/10/31 01:33:30;;;;;;;2.47;0.80;;;13.10;81.10;;;;;;4915615;29;20040;-68
2021/10/31 01:36:05;;;;;;;6.35;0.90;;;13.20;81.20;;;;;;4915501;29;20056;-68
2021/10/31 01:38:55;;;;;;;3.38;0.90;;;13.20;80.90;;;;;;4915599;29;20039;-68
2021/10/31 01:41:46;;;;;;;3.95;0.98;;;13.20;80.90;;;;;;4913763;29;20042;-67
2021/10/31 01:44:34;;;;;;;6.78;1.00;;;13.20;80.80;;;;;;4914499;29;20047;-68
2021/10/31 01:47:28;;;;;;;5.00;1.13;;;13.10;81.80;;;;;;4933025;29;20095;-68
2021/10/31 01:50:03;;;;;;;7.70;1.20;;;13.10;80.70;;;;;;4913542;29;20583;-68
2021/10/31 01:52:35;;;;;;;9.80;1.42;;;13.10;80.70;;;;;;4930882;29;20171;-67
2021/10/31 01:55:06;;;;;;;1.85;0.68;;;13.10;80.80;;;;;;4920809;29;20436;-67
2021/10/31 01:57:36;;;;;;;6.55;1.02;;;13.10;80.90;;;;;;4917309;29;20044;-68
2021/10/31 02:00:08;;;;;;;3.08;0.70;;;13.00;80.80;;;;;;4914482;29;20039;-68
2021/10/31 02:02:38;;;;;;;4.40;1.05;;;13.10;80.90;;;;;;4916854;29;20043;-68
2021/10/31 02:05:06;;;;;;;2.42;0.73;;;13.10;81.00;;;;;;4964721;28;20035;-68
2021/10/31 02:07:35;;;;;;;5.20;0.88;;;13.10;81.10;;;;;;5007854;28;20496;-67
2021/10/31 02:10:03;;;;;;;8.07;1.08;;;13.10;81.00;;;;;;5003980;28;20474;-68
2021/10/31 02:12:29;;;;;;;5.50;0.90;;;13.10;81.00;;;;;;5005413;28;20108;-68
2021/10/31 02:14:56;;;;;;;5.65;0.80;;;13.10;81.10;;;;;;5006618;28;20111;-67
2021/10/31 02:17:22;;;;;;;2.33;0.80;;;13.20;81.20;;;;;;4992873;28;20422;-68
2021/10/31 02:19:50;;;;;;;6.45;0.98;;;13.20;81.20;;;;;;4994761;28;20065;-68
2021/10/31 02:22:23;;;;;;;5.10;0.80;;;13.20;81.30;;;;;;4996567;28;20554;-68
2021/10/31 02:24:49;;;;;;;5.63;1.10;;;13.20;81.60;;;;;;4996348;28;20112;-68
2021/10/31 02:27:19;;;;;;;6.82;1.02;;;13.20;81.60;;;;;;4997119;28;20074;-68
2021/10/31 02:29:51;;;;;;;3.03;0.73;;;13.20;81.80;;;;;;4996009;28;20109;-68
2021/10/31 02:32:17;;;;;;;6.97;1.00;;;13.20;82.10;;;;;;4992215;28;20026;-68
2021/10/31 02:34:43;;;;;;;8.75;1.30;;;13.20;82.40;;;;;;5007239;28;20100;-68
2021/10/31 02:37:10;;;;;;;4.22;0.80;;;13.30;82.70;;;;;;5003793;28;20034;-68
2021/10/31 02:39:36;;;;;;;4.68;1.02;;;13.30;82.60;;;;;;5004718;28;20018;-68
2021/10/31 02:42:03;;;;;;;5.13;0.90;;;13.30;82.70;;;;;;5004819;28;20405;-68
2021/10/31 02:44:29;;;;;;;4.72;0.95;;;13.30;82.80;;;;;;5007313;28;20032;-68
2021/10/31 02:46:56;;;;;;;8.15;1.15;;;13.30;83.00;;;;;;5007591;28;20105;-68
2021/10/31 02:49:23;;;;;;;4.78;0.82;;;13.30;83.10;;;;;;5005940;28;20030;-68
2021/10/31 02:51:58;;;;;;;4.93;1.00;;;13.40;83.10;;;;;;4999185;28;20050;-68
2021/10/31 02:54:44;;;;;;;9.02;1.02;;;13.40;83.40;;;;;;4995721;28;20029;-68
2021/10/31 02:57:28;;;;;;;7.30;1.20;;;13.40;83.50;;;;;;4996022;28;20232;-68
2021/10/31 03:00:01;;;;;;;9.88;1.10;;;13.50;83.90;;;;;;4995745;28;20037;-68
2021/10/31 03:02:29;;;;;;;10.43;1.52;;;13.50;84.20;;;;;;4998256;28;20093;-68
2021/10/31 03:04:56;;;;;;;9.75;1.33;;;13.50;84.60;;;;;;4994216;28;20093;-68
2021/10/31 03:07:22;;;;;;;2.78;0.80;;;13.50;84.90;;;;;;4996027;28;20030;-68
2021/10/31 03:09:49;;;;;;;7.05;1.20;;;13.50;85.30;;;;;;5000605;28;20037;-68
2021/10/31 03:12:16;;;;;;;2.28;0.60;;;13.50;85.50;;;;;;5005903;28;20021;-68
2021/10/31 03:14:41;;;;;;;6.25;1.05;;;13.60;85.90;;;;;;5006664;28;20037;-68
2021/10/31 03:17:07;;;;;;;7.82;1.30;;;13.60;85.90;;;;;;4992777;28;20030;-67
2021/10/31 03:19:35;;;;;;;8.50;1.30;;;13.60;86.20;;;;;;5006391;28;20022;-68
2021/10/31 03:22:01;;;;;;;7.47;1.20;;;13.60;86.40;;;;;;5004134;28;20056;-68
2021/10/31 03:24:27;;;;;;;9.23;1.75;;;13.60;86.60;;;;;;5001449;28;20030;-68
2021/10/31 03:26:53;;;;;;;7.05;1.15;;;13.70;86.90;;;;;;4995197;28;20480;-68
2021/10/31 03:29:21;;;;;;;8.05;1.23;;;13.70;87.00;;;;;;4991247;28;20034;-68
2021/10/31 03:31:47;;;;;;;10.18;1.30;;;13.70;87.00;;;;;;4994518;28;20014;-68
2021/10/31 03:34:13;;;;;;;11.02;1.40;;;13.80;87.10;;;;;;4996043;28;20421;-68
2021/10/31 03:36:39;;;;;;;5.13;0.98;;;13.80;87.20;;;;;;4995747;28;20030;-68
2021/10/31 03:39:06;;;;;;;4.55;1.17;;;13.80;87.20;;;;;;4995462;28;20022;-68
2021/10/31 03:41:32;;;;;;;11.32;1.15;;;13.80;87.30;;;;;;4993631;28;20527;-68
2021/10/31 03:43:58;;;;;;;7.00;1.20;;;13.90;87.20;;;;;;4992914;28;20046;-68
2021/10/31 03:46:24;;;;;;;6.57;1.20;;;13.90;87.30;;;;;;4996178;28;20026;-68
2021/10/31 03:48:50;;;;;;;14.35;2.10;;;13.90;87.30;;;;;;5003173;28;20022;-68
2021/10/31 03:51:15;;;;;;;9.57;1.58;;;13.90;87.40;;;;;;5003647;28;20065;-68
2021/10/31 03:53:41;;;;;;;5.78;1.02;;;13.90;87.50;;;;;;4999874;28;20485;-68
2021/10/31 03:56:07;;;;;;;6.60;1.13;;;14.00;87.40;;;;;;4992290;28;20038;-68
2021/10/31 03:58:33;;;;;;;7.25;1.17;;;14.00;88.30;;;;;;4994857;28;20438;-68
2021/10/31 04:01:00;;;;;;;6.35;1.40;;;14.00;87.30;;;;;;4995328;28;20065;-68
2021/10/31 04:03:26;;;;;;;6.13;1.23;;;14.10;87.40;;;;;;4995167;28;20050;-68
2021/10/31 04:05:52;;;;;;;6.45;1.25;;;14.10;87.20;;;;;;4994811;28;20030;-68
2021/10/31 04:08:18;;;;;;;7.60;1.08;;;14.10;87.10;;;;;;4990860;28;20556;-68
2021/10/31 04:10:44;;;;;;;10.85;1.27;;;14.20;87.00;;;;;;4994873;28;20126;-68
2021/10/31 04:13:09;;;;;;;10.23;1.30;;;14.20;86.90;;;;;;5003297;28;20030;-68
2021/10/31 04:15:35;;;;;;;5.53;0.90;;;14.20;86.80;;;;;;4999955;28;20085;-68
2021/10/31 04:18:01;;;;;;;11.85;1.73;;;14.20;86.80;;;;;;4995196;28;20513;-68
2021/10/31 04:20:27;;;;;;;14.15;1.35;;;14.20;86.80;;;;;;4993007;28;20235;-68
2021/10/31 04:22:53;;;;;;;5.43;1.20;;;14.20;86.70;;;;;;5006081;28;20033;-67
2021/10/31 04:25:19;;;;;;;10.15;1.33;;;14.20;86.80;;;;;;5003532;28;20034;-67
2021/10/31 04:27:45;;;;;;;7.10;1.02;;;14.30;86.80;;;;;;5003814;28;20551;-68
2021/10/31 04:30:12;;;;;;;7.13;1.30;;;14.30;86.80;;;;;;5003212;28;20042;-68
2021/10/31 04:32:38;;;;;;;10.70;1.20;;;14.30;86.80;;;;;;5007307;28;20046;-68
2021/10/31 04:35:05;;;;;;;10.55;1.25;;;14.30;86.60;;;;;;4995369;28;20588;-68
2021/10/31 04:37:33;;;;;;;10.48;1.30;;;14.30;86.50;;;;;;4998499;28;20053;-68
2021/10/31 04:40:00;;;;;;;10.65;1.23;;;14.40;86.40;;;;;;4998457;28;20034;-68
2021/10/31 04:42:30;;;;;;;8.73;1.73;;;14.40;86.40;;;;;;4998236;28;20022;-68
2021/10/31 04:44:56;;;;;;;6.82;1.25;;;14.50;86.10;;;;;;4996481;28;20484;-68
2021/10/31 04:47:22;;;;;;;9.18;0.95;;;14.50;85.70;;;;;;5009489;28;20116;-68
2021/10/31 04:49:47;;;;;;;13.70;1.40;;;14.50;85.30;;;;;;4997396;28;20034;-68
2021/10/31 04:52:14;;;;;;;6.43;1.17;;;14.60;85.40;;;;;;4998657;28;20048;-68
2021/10/31 04:54:40;;;;;;;6.38;0.90;;;14.60;85.10;;;;;;4998549;28;20109;-68
2021/10/31 04:57:07;;;;;;;6.22;1.02;;;14.60;84.80;;;;;;4997562;28;20030;-68
2021/10/31 04:59:33;;;;;;;10.48;1.10;;;14.60;84.50;;;;;;5009163;28;20166;-68
2021/10/31 05:01:58;;;;;;;12.60;1.25;;;14.70;84.10;;;;;;5008614;28;20028;-68
2021/10/31 05:04:25;;;;;;;8.00;1.13;;;14.70;84.10;;;;;;5007952;28;20111;-68
2021/10/31 05:06:51;;;;;;;8.38;1.20;;;14.70;84.10;;;;;;5008994;28;20049;-68
